Time;durP1;ratioP1;P1;durP2;ratioP2;P2;SDS_P1;SDS_P2;PMS_P1;PMS_P2;Temp;Humidity;BMP_temperature;BMP_pressure;BME280_temperature;BME280_humidity;BME280_pressure;Samples;Min_cycle;Max_cycle;Signal;HPM_P1;HPM_P2
2023/06/02 00:02:22;;;;;;;7.25;3.60;;;13.20;95.00;;;;;;5088674;28;20422;-72
2023/06/02 00:04:49;;;;;;;6.15;3.67;;;13.20;95.30;;;;;;5089550;28;20024;-72
2023/06/02 00:07:15;;;;;;;6.13;3.42;;;13.10;95.50;;;;;;5091444;28;20035;-72
2023/06/02 00:09:42;;;;;;;9.15;3.75;;;13.00;95.70;;;;;;5090335;28;20333;-72
2023/06/02 00:12:09;;;;;;;8.43;3.92;;;12.90;95.80;;;;;;5086054;28;20032;-71
2023/06/02 00:14:38;;;;;;;8.98;3.88;;;12.90;95.80;;;;;;5089143;28;20016;-71
2023/06/02 00:17:04;;;;;;;8.73;4.20;;;13.00;95.50;;;;;;5084617;28;20114;-71
2023/06/02 00:19:42;;;;;;;8.23;3.72;;;13.00;95.30;;;;;;5085026;28;20153;-71
2023/06/02 00:22:14;;;;;;;6.05;3.40;;;13.00;95.40;;;;;;5083385;28;20024;-72
2023/06/02 00:24:43;;;;;;;7.32;3.78;;;12.90;95.60;;;;;;5087149;28;20039;-72
2023/06/02 00:27:09;;;;;;;6.70;4.10;;;12.70;95.90;;;;;;5089601;28;20485;-72
2023/06/02 00:29:35;;;;;;;8.80;4.20;;;12.60;96.30;;;;;;5088220;28;20024;-72
2023/06/02 00:32:01;;;;;;;7.07;3.97;;;12.50;96.40;;;;;;5086975;28;20028;-72
2023/06/02 00:34:26;;;;;;;8.60;4.43;;;12.50;96.50;;;;;;5085571;28;20077;-72
2023/06/02 00:36:52;;;;;;;8.60;3.88;;;12.40;96.60;;;;;;5076635;28;20424;-72
2023/06/02 00:39:18;;;;;;;7.07;4.25;;;12.40;96.70;;;;;;5090335;28;20031;-72
2023/06/02 00:41:45;;;;;;;8.43;4.38;;;12.30;96.80;;;;;;5090748;28;20037;-72
2023/06/02 00:44:10;;;;;;;7.55;3.70;;;12.30;96.80;;;;;;5089558;28;20039;-72
2023/06/02 00:46:36;;;;;;;9.45;4.72;;;12.20;96.80;;;;;;5083266;28;20028;-72
2023/06/02 00:49:02;;;;;;;7.28;4.10;;;12.20;97.00;;;;;;5071557;28;20649;-72
2023/06/02 00:51:28;;;;;;;11.32;4.50;;;12.30;96.80;;;;;;5092759;28;20019;-73
2023/06/02 00:53:54;;;;;;;9.85;4.38;;;12.30;96.80;;;;;;5089648;28;20020;-72
2023/06/02 00:56:23;;;;;;;7.80;4.13;;;12.30;96.70;;;;;;5090949;28;20016;-72
2023/06/02 00:58:49;;;;;;;7.75;3.83;;;12.30;96.60;;;;;;5090594;28;20107;-72
2023/06/02 01:01:18;;;;;;;7.97;4.35;;;12.20;96.80;;;;;;5093134;28;20028;-72
2023/06/02 01:03:46;;;;;;;7.45;4.28;;;12.20;96.80;;;;;;5086572;28;21541;-73
2023/06/02 01:06:15;;;;;;;9.55;4.72;;;12.10;96.90;;;;;;5087397;28;20095;-72
2023/06/02 01:08:41;;;;;;;9.95;4.20;;;12.10;96.90;;;;;;5090928;28;20048;-72
2023/06/02 01:11:07;;;;;;;9.20;4.53;;;12.00;97.00;;;;;;5090732;28;20055;-73
2023/06/02 01:13:34;;;;;;;10.40;4.88;;;12.00;96.90;;;;;;5071634;28;20691;-72
2023/06/02 01:15:59;;;;;;;11.52;4.90;;;12.00;97.00;;;;;;5087490;28;20102;-72
2023/06/02 01:18:31;;;;;;;12.07;5.55;;;12.00;97.00;;;;;;5089319;28;20103;-72
2023/06/02 01:21:00;;;;;;;9.43;4.68;;;11.90;97.10;;;;;;5067241;28;20040;-72
2023/06/02 01:23:32;;;;;;;7.50;4.45;;;11.90;97.20;;;;;;5088405;28;20034;-73
2023/06/02 01:25:57;;;;;;;9.30;4.95;;;11.90;97.10;;;;;;5088671;28;20028;-72
2023/06/02 01:28:24;;;;;;;8.13;4.40;;;11.90;97.10;;;;;;5072955;28;20028;-72
2023/06/02 01:31:08;;;;;;;7.05;4.30;;;11.80;97.00;;;;;;5093872;28;20363;-73
2023/06/02 01:33:45;;;;;;;8.90;5.00;;;11.80;97.00;;;;;;5071502;28;20028;-72
2023/06/02 01:36:10;;;;;;;7.82;4.35;;;11.80;97.00;;;;;;5071653;28;20040;-73
2023/06/02 01:38:38;;;;;;;9.98;4.57;;;11.70;97.00;;;;;;5091679;28;20073;-72
2023/06/02 01:41:06;;;;;;;8.55;4.75;;;11.70;97.00;;;;;;5092501;28;20073;-72
2023/06/02 01:43:33;;;;;;;7.97;4.18;;;11.60;97.00;;;;;;5092411;28;20028;-72
2023/06/02 01:46:00;;;;;;;9.35;4.93;;;11.60;97.10;;;;;;5069907;28;20094;-72
2023/06/02 01:48:30;;;;;;;10.93;4.88;;;11.50;97.20;;;;;;5092184;28;20420;-72
2023/06/02 01:50:56;;;;;;;8.77;4.50;;;11.40;97.30;;;;;;5087574;28;20032;-72
2023/06/02 01:53:26;;;;;;;9.73;4.68;;;11.30;97.40;;;;;;5087437;28;20400;-72
2023/06/02 01:55:51;;;;;;;9.43;4.95;;;11.30;97.40;;;;;;5089050;28;20024;-72
2023/06/02 01:58:17;;;;;;;8.85;4.70;;;11.20;97.50;;;;;;5092309;28;20107;-72
2023/06/02 02:00:42;;;;;;;8.50;4.70;;;11.20;97.50;;;;;;5093671;28;20056;-72
2023/06/02 02:03:08;;;;;;;11.57;4.25;;;11.20;97.40;;;;;;5090621;28;20016;-72
2023/06/02 02:05:33;;;;;;;8.10;4.63;;;11.20;97.50;;;;;;5092499;28;20047;-72
2023/06/02 02:07:59;;;;;;;9.45;5.00;;;11.20;97.40;;;;;;5073847;28;20089;-72
2023/06/02 02:10:25;;;;;;;7.90;4.80;;;11.10;97.30;;;;;;5094112;28;20074;-72
2023/06/02 02:12:50;;;;;;;10.65;5.30;;;11.00;97.30;;;;;;5095629;28;20039;-72
2023/06/02 02:15:16;;;;;;;10.35;4.93;;;10.90;97.40;;;;;;5095666;28;20443;-72
2023/06/02 02:17:45;;;;;;;10.65;4.85;;;10.80;97.40;;;;;;5093034;28;20020;-72
2023/06/02 02:20:18;;;;;;;8.70;4.80;;;10.80;97.30;;;;;;5088121;28;20024;-72
2023/06/02 02:22:47;;;;;;;9.50;5.50;;;10.80;97.30;;;;;;5068672;28;20117;-72
2023/06/02 02:25:13;;;;;;;11.95;5.15;;;10.70;97.30;;;;;;5093918;28;20270;-72
2023/06/02 02:27:42;;;;;;;7.80;4.88;;;10.70;97.30;;;;;;5092808;28;20038;-72
2023/06/02 02:30:08;;;;;;;10.05;5.20;;;10.70;97.30;;;;;;5070746;28;20028;-72
2023/06/02 02:32:39;;;;;;;10.30;5.30;;;10.60;97.00;;;;;;5089949;28;20417;-72
2023/06/02 02:35:06;;;;;;;11.43;5.93;;;10.50;96.70;;;;;;5092855;28;20020;-72
2023/06/02 02:37:32;;;;;;;9.52;5.28;;;10.40;96.70;;;;;;5088867;28;20089;-72
2023/06/02 02:40:00;;;;;;;9.35;5.53;;;10.30;96.50;;;;;;5072394;28;20372;-72
2023/06/02 02:42:26;;;;;;;10.55;5.28;;;10.30;95.90;;;;;;5089439;28;20033;-72
2023/06/02 02:44:51;;;;;;;9.93;5.72;;;10.30;95.60;;;;;;5090609;28;20047;-72
2023/06/02 02:47:17;;;;;;;10.00;4.93;;;10.20;95.80;;;;;;5093108;28;20329;-72
2023/06/02 02:49:43;;;;;;;8.40;5.07;;;10.20;95.70;;;;;;5093305;28;20039;-72
2023/06/02 02:52:12;;;;;;;9.70;5.43;;;10.20;95.90;;;;;;5087997;28;20035;-72
2023/06/02 02:54:38;;;;;;;8.88;4.80;;;10.20;95.80;;;;;;5089620;28;20020;-72
2023/06/02 02:57:06;;;;;;;10.90;5.60;;;10.10;95.50;;;;;;5089147;28;20107;-73
2023/06/02 02:59:31;;;;;;;10.40;5.63;;;10.10;95.30;;;;;;5096263;28;20051;-72
2023/06/02 03:01:58;;;;;;;9.05;5.25;;;10.10;95.30;;;;;;5096497;28;20024;-72
2023/06/02 03:04:24;;;;;;;8.98;5.60;;;10.00;95.10;;;;;;5062078;28;20111;-72
2023/06/02 03:06:54;;;;;;;10.80;5.97;;;10.00;95.20;;;;;;5095989;28;20103;-71
2023/06/02 03:09:20;;;;;;;9.65;5.30;;;10.10;94.90;;;;;;5072827;28;20067;-71
2023/06/02 03:11:46;;;;;;;9.48;5.50;;;10.00;95.20;;;;;;5089952;28;20062;-71
2023/06/02 03:14:12;;;;;;;14.10;5.47;;;10.00;95.20;;;;;;5089833;28;20032;-71
2023/06/02 03:16:41;;;;;;;8.75;5.13;;;10.00;95.30;;;;;;5093609;28;20024;-72
2023/06/02 03:19:14;;;;;;;10.15;5.63;;;10.10;95.50;;;;;;5089028;28;20104;-72
2023/06/02 03:21:43;;;;;;;9.30;5.38;;;10.10;95.70;;;;;;5088315;28;20384;-72
2023/06/02 03:24:10;;;;;;;8.23;4.95;;;10.00;95.50;;;;;;5089896;28;20138;-72
2023/06/02 03:26:37;;;;;;;10.77;5.80;;;10.00;94.90;;;;;;5091063;28;20039;-72
2023/06/02 03:29:02;;;;;;;9.00;5.10;;;9.90;95.00;;;;;;5089100;28;20028;-73
2023/06/02 03:31:31;;;;;;;11.30;6.00;;;9.90;95.40;;;;;;5095013;28;20073;-72
2023/06/02 03:33:57;;;;;;;9.90;5.13;;;9.80;95.00;;;;;;5090246;28;20024;-72
2023/06/02 03:36:22;;;;;;;9.95;5.45;;;9.80;94.40;;;;;;5091430;28;20137;-72
2023/06/02 03:38:48;;;;;;;8.68;5.82;;;9.70;94.40;;;;;;5088552;28;20039;-72
2023/06/02 03:41:13;;;;;;;9.90;5.30;;;9.70;94.50;;;;;;5090226;28;20031;-71
2023/06/02 03:43:40;;;;;;;10.63;5.85;;;9.60;94.50;;;;;;5090735;28;20034;-71
2023/06/02 03:46:05;;;;;;;10.73;5.55;;;9.70;94.90;;;;;;5091813;28;20321;-72
2023/06/02 03:48:31;;;;;;;12.57;5.85;;;9.60;95.20;;;;;;5070340;28;20039;-72
2023/06/02 03:50:56;;;;;;;11.98;6.55;;;9.60;94.60;;;;;;5081921;28;20032;-72
2023/06/02 03:53:22;;;;;;;11.93;6.15;;;9.60;94.70;;;;;;5081869;28;20032;-72
2023/06/02 03:55:47;;;;;;;10.05;5.75;;;9.60;94.80;;;;;;5065269;28;20027;-72
2023/06/02 03:58:14;;;;;;;9.30;5.88;;;9.60;95.20;;;;;;5087053;28;20440;-72
2023/06/02 04:00:41;;;;;;;9.45;5.85;;;9.60;94.90;;;;;;5087639;28;20969;-73
2023/06/02 04:03:09;;;;;;;11.45;7.00;;;9.60;95.60;;;;;;5084640;28;20016;-72
2023/06/02 04:05:34;;;;;;;12.95;6.25;;;9.70;95.90;;;;;;5087616;28;20016;-72
2023/06/02 04:08:00;;;;;;;11.10;6.50;;;9.80;96.10;;;;;;5088557;28;20024;-71
2023/06/02 04:10:28;;;;;;;11.10;6.07;;;9.80;96.10;;;;;;5083858;28;20071;-72
2023/06/02 04:12:53;;;;;;;8.40;6.13;;;9.70;95.90;;;;;;5088546;28;20462;-72
2023/06/02 04:15:22;;;;;;;10.20;5.72;;;9.70;95.90;;;;;;5092810;28;20028;-72
2023/06/02 04:17:47;;;;;;;9.85;5.95;;;9.70;95.90;;;;;;5086099;28;20024;-72
2023/06/02 04:20:13;;;;;;;10.15;5.57;;;9.70;95.60;;;;;;5085799;28;20031;-72
2023/06/02 04:22:38;;;;;;;12.65;5.40;;;9.70;95.00;;;;;;5088971;28;20032;-72
2023/06/02 04:25:05;;;;;;;11.27;6.72;;;9.70;95.10;;;;;;5085596;28;20612;-72
2023/06/02 04:27:31;;;;;;;10.20;5.88;;;9.60;95.30;;;;;;5087586;28;20027;-72
2023/06/02 04:29:57;;;;;;;8.55;5.78;;;9.60;95.20;;;;;;5087246;28;20028;-73
2023/06/02 04:32:23;;;;;;;11.85;6.63;;;9.70;95.10;;;;;;5073816;28;20077;-72
2023/06/02 04:34:50;;;;;;;9.23;5.80;;;9.70;95.00;;;;;;5087423;28;20436;-73
2023/06/02 04:37:16;;;;;;;10.70;6.53;;;9.70;94.90;;;;;;5101608;28;20125;-73
2023/06/02 04:39:46;;;;;;;11.63;5.88;;;9.70;94.90;;;;;;5083427;28;20063;-72
2023/06/02 04:42:15;;;;;;;10.38;6.07;;;9.70;94.80;;;;;;5086076;28;20028;-72
2023/06/02 04:44:44;;;;;;;15.02;6.13;;;9.70;94.90;;;;;;5090277;28;20427;-72
2023/06/02 04:47:10;;;;;;;12.20;5.97;;;9.80;95.00;;;;;;5092612;28;20085;-72
2023/06/02 04:49:36;;;;;;;11.73;6.43;;;9.80;95.00;;;;;;5095745;28;20032;-72
2023/06/02 04:52:07;;;;;;;11.35;6.65;;;9.90;94.60;;;;;;5094309;28;20069;-73
2023/06/02 04:54:33;;;;;;;10.27;6.75;;;9.90;95.40;;;;;;5089153;28;20456;-72
2023/06/02 04:56:58;;;;;;;10.00;6.20;;;10.00;95.70;;;;;;5063485;28;20151;-72
2023/06/02 04:59:24;;;;;;;13.10;6.40;;;10.00;95.90;;;;;;5089066;28;20024;-72
2023/06/02 05:01:49;;;;;;;11.63;6.25;;;10.10;96.70;;;;;;5085559;28;20036;-73
2023/06/02 05:04:15;;;;;;;11.25;6.75;;;10.20;96.60;;;;;;5097299;28;20384;-73
2023/06/02 05:06:41;;;;;;;11.95;6.18;;;10.30;96.90;;;;;;5072300;28;20024;-72
2023/06/02 05:09:06;;;;;;;9.43;5.80;;;10.40;96.90;;;;;;5092554;28;20021;-72
2023/06/02 05:11:32;;;;;;;10.60;6.35;;;10.60;97.40;;;;;;5091341;28;20566;-72
2023/06/02 05:13:58;;;;;;;13.10;6.30;;;10.70;97.10;;;;;;5092007;28;20020;-72
2023/06/02 05:16:24;;;;;;;10.35;6.28;;;10.80;97.40;;;;;;5098526;28;20438;-73
2023/06/02 05:18:50;;;;;;;11.00;6.95;;;10.90;98.00;;;;;;5098431;28;20059;-72
2023/06/02 05:21:15;;;;;;;10.68;6.55;;;11.00;98.00;;;;;;5080696;28;20038;-73
2023/06/02 05:23:41;;;;;;;10.18;7.03;;;11.10;98.00;;;;;;5096734;28;20501;-72
2023/06/02 05:26:07;;;;;;;11.57;6.22;;;11.30;98.00;;;;;;5092409;28;20035;-72
2023/06/02 05:28:32;;;;;;;12.82;7.03;;;11.40;98.00;;;;;;5098229;28;20058;-72
2023/06/02 05:30:58;;;;;;;12.63;6.55;;;11.60;97.60;;;;;;5096815;28;20031;-73
2023/06/02 05:33:24;;;;;;;14.10;7.25;;;11.80;97.50;;;;;;5100480;28;20410;-72
2023/06/02 05:35:49;;;;;;;12.90;6.50;;;12.00;97.10;;;;;;5094530;28;20095;-72
2023/06/02 05:38:17;;;;;;;10.80;7.10;;;12.20;96.80;;;;;;5077546;28;20024;-72
2023/06/02 05:40:43;;;;;;;12.65;7.72;;;12.30;96.30;;;;;;5094160;28;20070;-72
2023/06/02 05:43:10;;;;;;;11.13;7.38;;;12.40;95.90;;;;;;5098189;28;20511;-73
2023/06/02 05:45:36;;;;;;;14.80;7.93;;;12.50;95.50;;;;;;5097444;28;20099;-73
2023/06/02 05:48:01;;;;;;;12.00;7.32;;;12.60;95.60;;;;;;5068768;28;20035;-72
2023/06/02 05:50:27;;;;;;;15.40;7.57;;;12.80;95.20;;;;;;5077453;28;20024;-72
2023/06/02 05:52:52;;;;;;;12.30;7.50;;;12.90;95.00;;;;;;5077182;28;20028;-72
2023/06/02 05:55:18;;;;;;;12.13;7.53;;;13.00;94.90;;;;;;5090628;28;20047;-72
2023/06/02 05:57:43;;;;;;;15.77;7.93;;;13.10;94.60;;;;;;5092415;28;20305;-73
2023/06/02 06:00:10;;;;;;;16.70;9.05;;;13.20;94.90;;;;;;5085446;28;20115;-73
2023/06/02 06:02:35;;;;;;;12.15;7.97;;;13.20;94.60;;;;;;5096343;28;20020;-72
2023/06/02 06:05:01;;;;;;;12.05;7.22;;;13.30;93.90;;;;;;5093741;28;20035;-72
2023/06/02 06:07:27;;;;;;;15.23;7.90;;;13.30;94.30;;;;;;5083943;28;20035;-72
2023/06/02 06:09:52;;;;;;;15.00;7.75;;;13.40;94.30;;;;;;5090343;28;20404;-72
2023/06/02 06:12:18;;;;;;;12.27;8.00;;;13.60;93.50;;;;;;5090644;28;20111;-72
2023/06/02 06:14:43;;;;;;;14.40;8.48;;;13.60;93.20;;;;;;5089155;28;20052;-72
2023/06/02 06:17:09;;;;;;;14.50;8.70;;;13.70;93.20;;;;;;5097351;28;20037;-73
2023/06/02 06:19:35;;;;;;;13.73;9.00;;;13.70;93.10;;;;;;5097422;28;20024;-72
2023/06/02 06:22:01;;;;;;;13.95;8.68;;;13.90;92.60;;;;;;5091700;28;20028;-72
2023/06/02 06:24:26;;;;;;;13.88;8.30;;;13.90;92.10;;;;;;5081116;28;20167;-73
2023/06/02 06:26:52;;;;;;;14.05;8.88;;;13.90;92.50;;;;;;5091327;28;20089;-72
2023/06/02 06:29:17;;;;;;;12.20;8.27;;;14.00;91.60;;;;;;5092951;28;20029;-72
2023/06/02 06:31:43;;;;;;;15.43;8.85;;;14.00;91.80;;;;;;5093666;28;20059;-73
2023/06/02 06:34:09;;;;;;;12.10;8.18;;;14.00;91.30;;;;;;5097956;28;20031;-72
2023/06/02 06:36:35;;;;;;;13.65;8.52;;;14.20;91.50;;;;;;5096560;28;20485;-73
2023/06/02 06:39:00;;;;;;;16.45;8.93;;;14.20;91.30;;;;;;5095750;28;20050;-72
2023/06/02 06:41:27;;;;;;;18.08;9.70;;;14.20;91.50;;;;;;5096350;28;20320;-72
2023/06/02 06:43:53;;;;;;;16.20;8.95;;;14.20;92.00;;;;;;5097769;28;20027;-73
2023/06/02 06:46:18;;;;;;;13.40;9.15;;;14.40;91.70;;;;;;5077350;28;20020;-72
2023/06/02 06:48:44;;;;;;;14.57;8.80;;;14.50;91.20;;;;;;5089093;28;20036;-72
2023/06/02 06:51:09;;;;;;;12.82;8.60;;;14.60;90.80;;;;;;5075680;28;20024;-72
2023/06/02 06:53:35;;;;;;;14.15;9.00;;;14.60;90.60;;;;;;5073510;28;20020;-72
2023/06/02 06:56:02;;;;;;;15.82;9.05;;;14.60;90.20;;;;;;5090526;28;20056;-73
2023/06/02 06:58:28;;;;;;;16.33;9.70;;;14.60;90.40;;;;;;5072735;28;20028;-72
2023/06/02 07:00:53;;;;;;;14.73;8.98;;;14.80;90.70;;;;;;5091495;28;20028;-72
2023/06/02 07:03:19;;;;;;;11.65;7.93;;;14.90;89.70;;;;;;5092260;28;20065;-72
2023/06/02 07:05:46;;;;;;;13.02;8.60;;;15.00;89.90;;;;;;5090294;28;20028;-72
2023/06/02 07:08:12;;;;;;;16.10;8.88;;;15.20;89.10;;;;;;5091584;28;20028;-72
2023/06/02 07:10:38;;;;;;;16.23;8.80;;;15.30;89.80;;;;;;5092875;28;20032;-72
2023/06/02 07:13:03;;;;;;;14.27;8.77;;;15.50;89.00;;;;;;5091970;28;20052;-72
2023/06/02 07:15:29;;;;;;;16.38;9.45;;;15.60;88.20;;;;;;5088526;28;20055;-72
2023/06/02 07:17:54;;;;;;;18.15;9.90;;;15.60;88.40;;;;;;5092401;28;20031;-72
2023/06/02 07:20:20;;;;;;;16.45;10.02;;;15.50;89.00;;;;;;5092818;28;20024;-72
2023/06/02 07:22:45;;;;;;;15.32;9.82;;;15.60;87.60;;;;;;5087876;28;20114;-73
2023/06/02 07:25:11;;;;;;;15.75;9.45;;;15.80;88.70;;;;;;5090454;28;20694;-72
2023/06/02 07:27:37;;;;;;;14.20;9.15;;;16.60;86.50;;;;;;5089992;28;20707;-73
2023/06/02 07:30:03;;;;;;;15.25;9.35;;;17.30;83.90;;;;;;5093165;28;20086;-73
2023/06/02 07:32:29;;;;;;;15.40;8.30;;;17.80;83.30;;;;;;5064985;28;20474;-72
2023/06/02 07:34:54;;;;;;;14.65;8.52;;;18.60;81.00;;;;;;5090896;28;20024;-73
2023/06/02 07:37:20;;;;;;;12.05;8.00;;;19.10;78.80;;;;;;5092730;28;20040;-73
2023/06/02 07:39:46;;;;;;;14.48;8.45;;;19.20;78.70;;;;;;5087771;28;20035;-73
2023/06/02 07:42:11;;;;;;;14.75;8.93;;;19.50;77.50;;;;;;5092273;28;20047;-73
2023/06/02 07:44:37;;;;;;;17.08;9.32;;;19.50;77.80;;;;;;5087041;28;20035;-72
2023/06/02 07:47:04;;;;;;;12.75;8.77;;;19.60;77.20;;;;;;5092074;28;20020;-73
2023/06/02 07:49:29;;;;;;;13.50;9.10;;;19.70;77.10;;;;;;5091989;28;20024;-73
2023/06/02 07:51:58;;;;;;;15.68;9.27;;;19.50;76.60;;;;;;5074341;28;20024;-72
2023/06/02 07:54:24;;;;;;;12.32;8.38;;;19.30;77.10;;;;;;5086828;28;20024;-73
2023/06/02 07:56:50;;;;;;;12.15;8.52;;;20.10;76.10;;;;;;5073360;28;20034;-73
2023/06/02 07:59:18;;;;;;;15.82;9.55;;;21.00;73.90;;;;;;5087233;28;20135;-77
2023/06/02 08:01:44;;;;;;;14.32;9.02;;;21.00;75.00;;;;;;5090750;28;20130;-73
2023/06/02 08:04:10;;;;;;;14.27;8.73;;;20.20;79.00;;;;;;5090876;28;20026;-73
2023/06/02 08:06:35;;;;;;;16.85;10.15;;;19.30;81.60;;;;;;5091468;28;20476;-73
2023/06/02 08:09:01;;;;;;;15.70;9.48;;;18.20;83.50;;;;;;5090370;28;20028;-73
2023/06/02 08:11:27;;;;;;;17.73;10.30;;;18.10;84.20;;;;;;5088142;28;20020;-73
2023/06/02 08:13:52;;;;;;;16.23;9.35;;;18.40;81.80;;;;;;5089843;28;20032;-72
2023/06/02 08:16:23;;;;;;;14.85;9.43;;;18.80;81.10;;;;;;5089455;28;20028;-73
2023/06/02 08:18:50;;;;;;;15.68;9.65;;;19.70;79.70;;;;;;5088189;28;20032;-72
2023/06/02 08:21:18;;;;;;;17.35;9.48;;;19.90;77.80;;;;;;5089661;28;20108;-72
2023/06/02 08:23:44;;;;;;;15.45;9.88;;;20.20;77.50;;;;;;5091159;28;20506;-71
2023/06/02 08:26:10;;;;;;;18.73;10.18;;;20.40;76.00;;;;;;5092215;28;20024;-72
2023/06/02 08:28:37;;;;;;;17.20;10.25;;;19.90;76.40;;;;;;5090878;28;20102;-71
2023/06/02 08:31:02;;;;;;;19.65;10.25;;;20.50;75.70;;;;;;5080272;28;20021;-72
2023/06/02 08:33:29;;;;;;;15.80;9.73;;;21.20;73.60;;;;;;5086301;28;20306;-73
2023/06/02 08:35:55;;;;;;;14.38;10.02;;;21.30;73.80;;;;;;5089016;28;20040;-73
2023/06/02 08:38:25;;;;;;;16.85;10.68;;;21.50;73.60;;;;;;5089806;28;20044;-73
2023/06/02 08:40:54;;;;;;;15.48;10.55;;;21.70;72.50;;;;;;5095703;28;20336;-72
2023/06/02 08:43:20;;;;;;;16.85;9.65;;;21.80;72.80;;;;;;5097172;28;20028;-73
2023/06/02 08:45:47;;;;;;;14.18;9.52;;;21.90;72.90;;;;;;5095962;28;20421;-72
2023/06/02 08:48:18;;;;;;;19.17;10.60;;;21.50;73.20;;;;;;5095604;28;20020;-72
2023/06/02 08:50:47;;;;;;;16.60;8.48;;;21.30;73.10;;;;;;5094596;28;20028;-73
2023/06/02 08:53:14;;;;;;;14.98;9.77;;;21.70;73.70;;;;;;5073569;28;20077;-72
2023/06/02 08:55:41;;;;;;;16.83;9.88;;;22.40;71.50;;;;;;5096217;28;20024;-72
2023/06/02 08:58:11;;;;;;;15.70;9.57;;;22.80;70.50;;;;;;5096470;28;20058;-73
2023/06/02 09:00:40;;;;;;;15.38;9.75;;;23.10;69.00;;;;;;5092233;28;20052;-72
2023/06/02 09:03:06;;;;;;;15.43;10.20;;;23.00;69.30;;;;;;5093839;28;20035;-73
2023/06/02 09:05:33;;;;;;;18.80;9.25;;;23.70;68.20;;;;;;5088456;28;20028;-72
2023/06/02 09:08:12;;;;;;;17.45;9.57;;;23.40;69.20;;;;;;5094661;28;20082;-72
2023/06/02 09:10:42;;;;;;;17.13;9.95;;;22.90;70.30;;;;;;5091709;28;20028;-71
2023/06/02 09:13:27;;;;;;;15.57;9.68;;;23.00;70.40;;;;;;5092858;28;20020;-71
2023/06/02 09:16:00;;;;;;;15.25;9.25;;;23.80;69.30;;;;;;5076655;28;20421;-72
2023/06/02 09:18:26;;;;;;;18.08;9.13;;;24.10;66.60;;;;;;5094219;28;20032;-72
2023/06/02 09:20:53;;;;;;;15.90;9.90;;;24.40;66.70;;;;;;5093615;28;20035;-72
2023/06/02 09:23:19;;;;;;;15.98;9.68;;;25.10;66.00;;;;;;5093196;28;20412;-72
2023/06/02 09:25:45;;;;;;;15.20;8.27;;;24.50;65.80;;;;;;5095430;28;20085;-72
2023/06/02 09:28:12;;;;;;;16.58;9.30;;;23.90;67.60;;;;;;5075587;28;20020;-72
2023/06/02 09:30:38;;;;;;;20.70;10.27;;;24.70;66.60;;;;;;5093627;28;20028;-72
2023/06/02 09:33:14;;;;;;;16.08;9.80;;;24.50;66.50;;;;;;5095410;28;20028;-72
2023/06/02 09:35:41;;;;;;;16.67;9.57;;;24.80;66.10;;;;;;5092556;28;20410;-72
2023/06/02 09:38:10;;;;;;;17.25;10.02;;;24.50;65.80;;;;;;5092419;28;20027;-72
2023/06/02 09:40:37;;;;;;;15.23;8.20;;;24.70;67.30;;;;;;5091129;28;20034;-72
2023/06/02 09:43:07;;;;;;;12.68;8.18;;;24.90;67.40;;;;;;5094517;28;20039;-72
2023/06/02 09:45:33;;;;;;;11.98;7.57;;;26.20;65.10;;;;;;5090826;28;20028;-72
2023/06/02 09:47:59;;;;;;;12.52;9.00;;;26.80;61.70;;;;;;5091624;28;20354;-72
2023/06/02 09:50:33;;;;;;;16.05;8.25;;;26.00;63.10;;;;;;5090855;28;20024;-72
2023/06/02 09:53:00;;;;;;;;;;;25.40;65.30;;;;;;5094027;28;20151;-72
2023/06/02 09:55:25;;;;;;;15.15;9.75;;;25.40;62.90;;;;;;5094966;28;19908;-72
2023/06/02 09:57:52;;;;;;;12.30;8.50;;;25.10;65.20;;;;;;5094280;28;20028;-72
2023/06/02 10:00:18;;;;;;;13.27;7.93;;;24.40;64.50;;;;;;5093432;28;20031;-72
2023/06/02 10:02:44;;;;;;;14.07;7.63;;;23.60;66.40;;;;;;5088616;28;20081;-72
2023/06/02 10:05:10;;;;;;;14.80;8.27;;;24.50;66.60;;;;;;5091917;28;20317;-72
2023/06/02 10:08:12;;;;;;;13.77;8.80;;;24.80;65.90;;;;;;5089830;28;20024;-72
2023/06/02 10:11:09;;;;;;;13.85;8.63;;;24.60;65.60;;;;;;5089967;28;20028;-72
2023/06/02 10:13:46;;;;;;;15.68;8.50;;;24.80;65.70;;;;;;5085599;28;20030;-72
2023/06/02 10:16:33;;;;;;;15.95;8.07;;;25.10;64.60;;;;;;5090705;28;20436;-71
2023/06/02 10:19:27;;;;;;;13.27;8.48;;;25.60;64.70;;;;;;5092955;28;20425;-72
2023/06/02 10:22:37;;;;;;;16.10;8.80;;;24.80;67.20;;;;;;5066402;28;20023;-72
2023/06/02 10:25:23;;;;;;;13.10;8.23;;;25.40;64.90;;;;;;5010943;28;20034;-72
2023/06/02 10:27:49;;;;;;;11.27;6.85;;;25.10;65.80;;;;;;5092182;28;20607;-72
2023/06/02 10:30:21;;;;;;;11.35;8.35;;;25.60;64.70;;;;;;5092201;28;20025;-72
2023/06/02 10:32:48;;;;;;;13.73;7.70;;;25.70;63.50;;;;;;5073672;28;20077;-72
2023/06/02 10:35:16;;;;;;;11.95;7.57;;;25.70;63.80;;;;;;5094878;28;20436;-71
2023/06/02 10:37:42;;;;;;;12.77;8.05;;;25.40;63.60;;;;;;5093253;28;20048;-71
2023/06/02 10:40:11;;;;;;;14.75;7.43;;;24.90;63.30;;;;;;5087036;28;20032;-72
2023/06/02 10:42:38;;;;;;;14.68;8.82;;;25.30;64.70;;;;;;5081681;28;20045;-71
2023/06/02 10:45:24;;;;;;;13.35;8.57;;;25.20;63.40;;;;;;5094026;28;20024;-72
2023/06/02 10:47:52;;;;;;;12.50;8.90;;;24.20;65.90;;;;;;5077854;28;20032;-71
2023/06/02 10:50:21;;;;;;;13.02;8.52;;;24.00;66.10;;;;;;5084056;28;20064;-72
2023/06/02 10:53:03;;;;;;;11.70;7.75;;;23.90;68.30;;;;;;5090855;28;20470;-71
2023/06/02 10:55:30;;;;;;;13.95;7.93;;;24.60;65.50;;;;;;5093444;28;20024;-72
2023/06/02 10:58:01;;;;;;;15.55;7.57;;;25.10;65.80;;;;;;5092897;28;20103;-72
2023/06/02 11:00:32;;;;;;;11.85;8.23;;;25.10;64.70;;;;;;5093487;28;20027;-72
2023/06/02 11:03:17;;;;;;;15.27;9.05;;;24.60;65.10;;;;;;5091042;28;20081;-72
2023/06/02 11:05:46;;;;;;;15.85;8.95;;;24.70;65.10;;;;;;5089651;28;20122;-72
2023/06/02 11:08:14;;;;;;;13.23;8.55;;;24.10;65.80;;;;;;5091791;28;20067;-72
2023/06/02 11:10:55;;;;;;;13.57;8.77;;;24.10;65.80;;;;;;5088357;28;20024;-72
2023/06/02 11:13:22;;;;;;;12.77;7.90;;;24.10;66.50;;;;;;5092651;28;20421;-72
2023/06/02 11:15:58;;;;;;;13.50;8.50;;;24.20;66.80;;;;;;5094115;28;20321;-72
2023/06/02 11:18:25;;;;;;;13.63;8.98;;;24.20;67.30;;;;;;5089667;28;20020;-71
2023/06/02 11:20:52;;;;;;;12.88;8.82;;;24.00;65.80;;;;;;5086555;28;20036;-71
2023/06/02 11:23:18;;;;;;;13.43;7.72;;;23.70;66.80;;;;;;5094379;28;20038;-71
2023/06/02 11:25:48;;;;;;;14.30;9.32;;;23.50;68.70;;;;;;5093730;28;20076;-72
2023/06/02 11:28:24;;;;;;;15.00;8.30;;;23.70;68.60;;;;;;5091641;28;20028;-72
2023/06/02 11:31:07;;;;;;;13.10;8.00;;;23.70;68.00;;;;;;5090897;28;20113;-72
2023/06/02 11:33:34;;;;;;;11.73;8.02;;;24.10;67.70;;;;;;5084742;28;20433;-71
2023/06/02 11:36:04;;;;;;;12.10;8.35;;;23.90;66.30;;;;;;5085842;28;20052;-72
2023/06/02 11:38:32;;;;;;;11.95;8.80;;;23.50;68.20;;;;;;5092558;28;20100;-72
2023/06/02 11:41:11;;;;;;;12.38;8.40;;;23.60;68.20;;;;;;5088144;28;20437;-72
2023/06/02 11:43:37;;;;;;;13.13;7.75;;;23.50;67.80;;;;;;5088306;28;20032;-72
2023/06/02 11:46:10;;;;;;;12.68;8.65;;;23.40;68.60;;;;;;5092655;28;20034;-72
2023/06/02 11:48:39;;;;;;;15.27;8.07;;;23.40;68.70;;;;;;5091300;28;20035;-72
2023/06/02 11:51:07;;;;;;;13.40;8.75;;;23.90;68.70;;;;;;5092045;28;20058;-72
2023/06/02 11:53:33;;;;;;;14.48;8.15;;;23.60;67.10;;;;;;5073991;28;20028;-72
2023/06/02 11:56:00;;;;;;;14.88;8.25;;;23.50;69.00;;;;;;5087507;28;20029;-72
2023/06/02 11:58:27;;;;;;;13.32;8.85;;;23.80;68.50;;;;;;5093076;28;20062;-72
2023/06/02 12:01:14;;;;;;;12.43;8.23;;;24.30;66.30;;;;;;5092389;28;20157;-72
2023/06/02 12:04:05;;;;;;;12.45;7.45;;;24.40;67.40;;;;;;5090579;28;20059;-72
2023/06/02 12:06:45;;;;;;;12.88;7.13;;;24.90;66.10;;;;;;5087528;28;20027;-72
2023/06/02 12:09:12;;;;;;;12.00;7.70;;;25.20;65.20;;;;;;5090492;28;20389;-72
2023/06/02 12:11:38;;;;;;;10.82;6.97;;;26.20;63.80;;;;;;5087803;28;20313;-72
2023/06/02 12:14:06;;;;;;;14.98;7.07;;;26.40;61.90;;;;;;5093842;28;20031;-72
2023/06/02 12:16:34;;;;;;;10.85;7.47;;;25.90;63.00;;;;;;5086069;28;20436;-72
2023/06/02 12:19:20;;;;;;;11.82;7.32;;;25.50;63.70;;;;;;5080713;28;20081;-72
2023/06/02 12:21:47;;;;;;;9.40;6.80;;;25.30;64.70;;;;;;5092859;28;20448;-73
2023/06/02 12:24:38;;;;;;;10.23;7.40;;;25.60;63.30;;;;;;5092445;28;20028;-72
2023/06/02 12:27:07;;;;;;;11.38;6.70;;;25.80;63.10;;;;;;5087463;28;20047;-72
2023/06/02 12:29:33;;;;;;;12.13;7.28;;;25.90;62.60;;;;;;5096120;28;20115;-72
2023/06/02 12:32:03;;;;;;;10.00;6.38;;;25.40;62.70;;;;;;5085526;28;20079;-72
2023/06/02 12:34:30;;;;;;;12.07;6.95;;;25.50;64.20;;;;;;5088539;28;20028;-72
2023/06/02 12:36:55;;;;;;;10.73;6.68;;;25.80;63.20;;;;;;5092361;28;20047;-72
2023/06/02 12:39:21;;;;;;;10.88;6.43;;;25.60;63.20;;;;;;5093177;28;20016;-72
2023/06/02 12:41:47;;;;;;;11.57;6.47;;;25.60;63.30;;;;;;5088303;28;20317;-72
2023/06/02 12:44:12;;;;;;;9.93;6.00;;;25.90;62.20;;;;;;5093186;28;20028;-72
2023/06/02 12:46:38;;;;;;;9.38;5.85;;;26.70;62.50;;;;;;5090879;28;20409;-72